Terminal Aerodrome Forecast
Issued by NWS Newport/Morehead City, NC

Home | Current Version | Previous Version | Text Only | Print | Product List | Glossary Off
Versions: 1 2 3 4 5 6 7 8 9 10 11 12 13 14 15 16 17 18 19 20

452
FTUS42 KMHX 051600 AAA
TAFEWN
TAF AMD
KEWN 051600Z 0516/0612 35008KT P6SM SCT007 BKN050
      TEMPO 0516/0518 BKN007
     FM060600 05008KT 5SM -RA SCT015 OVC035=

USA.gov is the U.S. government's official web portal to all federal, state and local government web resources and services.